sensor_id;sensor_type;location;lat;lon;timestamp;P1;durP1;ratioP1;P2;durP2;ratioP2
13720;SDS011;6932;51.438;5.470;2022-10-29T00:00:21;15.73;;;7.87;;
13720;SDS011;6932;51.438;5.470;2022-10-29T00:02:46;15.43;;;7.37;;
13720;SDS011;6932;51.438;5.470;2022-10-29T00:05:12;12.67;;;7.33;;
13720;SDS011;6932;51.438;5.470;2022-10-29T00:07:38;14.30;;;6.90;;
13720;SDS011;6932;51.438;5.470;2022-10-29T00:10:04;15.90;;;7.27;;
13720;SDS011;6932;51.438;5.470;2022-10-29T00:12:31;12.97;;;7.00;;
13720;SDS011;6932;51.438;5.470;2022-10-29T00:14:56;12.47;;;6.87;;
13720;SDS011;6932;51.438;5.470;2022-10-29T00:17:22;13.27;;;6.87;;
13720;SDS011;6932;51.438;5.470;2022-10-29T00:19:48;15.33;;;7.07;;
13720;SDS011;6932;51.438;5.470;2022-10-29T00:22:14;12.73;;;7.13;;
13720;SDS011;6932;51.438;5.470;2022-10-29T00:24:39;13.93;;;6.87;;
13720;SDS011;6932;51.438;5.470;2022-10-29T00:27:05;14.33;;;7.53;;
13720;SDS011;6932;51.438;5.470;2022-10-29T00:29:31;17.13;;;7.67;;
13720;SDS011;6932;51.438;5.470;2022-10-29T00:31:56;17.00;;;7.77;;
13720;SDS011;6932;51.438;5.470;2022-10-29T00:34:22;13.07;;;6.90;;
13720;SDS011;6932;51.438;5.470;2022-10-29T00:36:48;16.77;;;7.93;;
13720;SDS011;6932;51.438;5.470;2022-10-29T00:39:14;16.27;;;8.00;;
13720;SDS011;6932;51.438;5.470;2022-10-29T00:41:40;16.40;;;7.33;;
13720;SDS011;6932;51.438;5.470;2022-10-29T00:46:39;12.97;;;7.23;;
13720;SDS011;6932;51.438;5.470;2022-10-29T00:49:10;15.67;;;7.30;;
13720;SDS011;6932;51.438;5.470;2022-10-29T00:51:37;15.53;;;7.37;;
13720;SDS011;6932;51.438;5.470;2022-10-29T00:54:04;13.97;;;7.30;;
13720;SDS011;6932;51.438;5.470;2022-10-29T00:56:34;13.50;;;7.17;;
13720;SDS011;6932;51.438;5.470;2022-10-29T00:59:15;14.23;;;7.23;;
13720;SDS011;6932;51.438;5.470;2022-10-29T01:01:42;13.30;;;6.90;;
13720;SDS011;6932;51.438;5.470;2022-10-29T01:04:11;15.20;;;7.50;;
13720;SDS011;6932;51.438;5.470;2022-10-29T01:06:37;14.87;;;7.57;;
13720;SDS011;6932;51.438;5.470;2022-10-29T01:09:06;15.40;;;7.20;;
13720;SDS011;6932;51.438;5.470;2022-10-29T01:11:39;15.97;;;7.10;;
13720;SDS011;6932;51.438;5.470;2022-10-29T01:27:26;14.90;;;6.90;;
13720;SDS011;6932;51.438;5.470;2022-10-29T01:35:48;16.73;;;8.97;;
13720;SDS011;6932;51.438;5.470;2022-10-29T01:38:35;15.00;;;7.37;;
13720;SDS011;6932;51.438;5.470;2022-10-29T01:44:36;14.57;;;7.63;;
13720;SDS011;6932;51.438;5.470;2022-10-29T01:47:17;14.20;;;7.10;;
13720;SDS011;6932;51.438;5.470;2022-10-29T01:49:58;16.00;;;7.20;;
13720;SDS011;6932;51.438;5.470;2022-10-29T01:52:30;17.30;;;7.60;;
13720;SDS011;6932;51.438;5.470;2022-10-29T01:55:00;13.90;;;7.10;;
13720;SDS011;6932;51.438;5.470;2022-10-29T02:00:07;14.53;;;6.83;;
13720;SDS011;6932;51.438;5.470;2022-10-29T02:02:43;12.47;;;7.00;;
13720;SDS011;6932;51.438;5.470;2022-10-29T02:09:04;14.63;;;7.50;;
13720;SDS011;6932;51.438;5.470;2022-10-29T02:11:58;18.00;;;7.77;;
13720;SDS011;6932;51.438;5.470;2022-10-29T02:15:02;16.40;;;7.87;;
13720;SDS011;6932;51.438;5.470;2022-10-29T02:17:32;16.20;;;7.60;;
13720;SDS011;6932;51.438;5.470;2022-10-29T02:20:06;14.40;;;7.47;;
13720;SDS011;6932;51.438;5.470;2022-10-29T02:22:35;13.17;;;6.73;;
13720;SDS011;6932;51.438;5.470;2022-10-29T02:25:01;14.97;;;7.47;;
13720;SDS011;6932;51.438;5.470;2022-10-29T02:27:29;17.07;;;7.30;;
13720;SDS011;6932;51.438;5.470;2022-10-29T02:29:55;15.07;;;6.80;;
13720;SDS011;6932;51.438;5.470;2022-10-29T02:32:21;16.27;;;6.97;;
13720;SDS011;6932;51.438;5.470;2022-10-29T02:34:46;12.90;;;6.50;;
13720;SDS011;6932;51.438;5.470;2022-10-29T02:37:12;13.60;;;6.40;;
13720;SDS011;6932;51.438;5.470;2022-10-29T02:39:38;17.37;;;6.93;;
13720;SDS011;6932;51.438;5.470;2022-10-29T02:42:03;15.30;;;6.90;;
13720;SDS011;6932;51.438;5.470;2022-10-29T02:44:29;15.77;;;7.10;;
13720;SDS011;6932;51.438;5.470;2022-10-29T02:46:55;13.27;;;7.03;;
13720;SDS011;6932;51.438;5.470;2022-10-29T02:49:20;13.50;;;6.90;;
13720;SDS011;6932;51.438;5.470;2022-10-29T02:51:46;14.20;;;7.40;;
13720;SDS011;6932;51.438;5.470;2022-10-29T02:54:12;15.90;;;6.40;;
13720;SDS011;6932;51.438;5.470;2022-10-29T02:56:38;13.80;;;6.50;;
13720;SDS011;6932;51.438;5.470;2022-10-29T02:59:03;12.93;;;6.33;;
13720;SDS011;6932;51.438;5.470;2022-10-29T03:01:29;16.47;;;7.43;;
13720;SDS011;6932;51.438;5.470;2022-10-29T03:03:55;12.67;;;6.53;;
13720;SDS011;6932;51.438;5.470;2022-10-29T03:06:22;15.83;;;6.57;;
13720;SDS011;6932;51.438;5.470;2022-10-29T03:08:47;12.87;;;6.50;;
13720;SDS011;6932;51.438;5.470;2022-10-29T03:11:14;13.17;;;6.73;;
13720;SDS011;6932;51.438;5.470;2022-10-29T03:13:40;12.30;;;6.83;;
13720;SDS011;6932;51.438;5.470;2022-10-29T03:16:05;11.90;;;6.67;;
13720;SDS011;6932;51.438;5.470;2022-10-29T03:18:31;15.10;;;6.80;;
13720;SDS011;6932;51.438;5.470;2022-10-29T03:20:57;15.10;;;6.57;;
13720;SDS011;6932;51.438;5.470;2022-10-29T03:23:23;13.13;;;6.57;;
13720;SDS011;6932;51.438;5.470;2022-10-29T03:25:49;12.23;;;6.37;;
13720;SDS011;6932;51.438;5.470;2022-10-29T03:28:17;14.30;;;6.63;;
13720;SDS011;6932;51.438;5.470;2022-10-29T03:30:45;13.43;;;6.57;;
13720;SDS011;6932;51.438;5.470;2022-10-29T03:33:10;13.33;;;6.53;;
13720;SDS011;6932;51.438;5.470;2022-10-29T03:35:36;15.10;;;6.40;;
13720;SDS011;6932;51.438;5.470;2022-10-29T03:38:02;14.33;;;6.83;;
13720;SDS011;6932;51.438;5.470;2022-10-29T03:40:27;14.63;;;6.80;;
13720;SDS011;6932;51.438;5.470;2022-10-29T03:42:53;14.67;;;6.90;;
13720;SDS011;6932;51.438;5.470;2022-10-29T03:45:19;11.27;;;6.37;;
13720;SDS011;6932;51.438;5.470;2022-10-29T03:47:45;13.07;;;6.50;;
13720;SDS011;6932;51.438;5.470;2022-10-29T03:50:11;15.30;;;7.03;;
13720;SDS011;6932;51.438;5.470;2022-10-29T03:52:37;19.53;;;6.93;;
13720;SDS011;6932;51.438;5.470;2022-10-29T03:55:03;12.63;;;6.50;;
13720;SDS011;6932;51.438;5.470;2022-10-29T03:57:30;13.00;;;6.63;;
13720;SDS011;6932;51.438;5.470;2022-10-29T03:59:56;13.90;;;6.50;;
13720;SDS011;6932;51.438;5.470;2022-10-29T04:02:22;15.43;;;7.27;;
13720;SDS011;6932;51.438;5.470;2022-10-29T04:04:48;15.50;;;7.10;;
13720;SDS011;6932;51.438;5.470;2022-10-29T04:07:14;13.73;;;6.83;;
13720;SDS011;6932;51.438;5.470;2022-10-29T04:09:40;13.80;;;7.00;;
13720;SDS011;6932;51.438;5.470;2022-10-29T04:12:06;15.03;;;6.70;;
13720;SDS011;6932;51.438;5.470;2022-10-29T04:14:32;15.47;;;7.30;;
13720;SDS011;6932;51.438;5.470;2022-10-29T04:16:58;11.70;;;6.07;;
13720;SDS011;6932;51.438;5.470;2022-10-29T04:19:24;12.20;;;6.70;;
13720;SDS011;6932;51.438;5.470;2022-10-29T04:21:50;14.27;;;6.90;;
13720;SDS011;6932;51.438;5.470;2022-10-29T04:24:15;14.40;;;6.80;;
13720;SDS011;6932;51.438;5.470;2022-10-29T04:26:41;15.73;;;7.10;;
13720;SDS011;6932;51.438;5.470;2022-10-29T04:29:08;18.53;;;7.17;;
13720;SDS011;6932;51.438;5.470;2022-10-29T04:31:35;15.20;;;7.20;;
13720;SDS011;6932;51.438;5.470;2022-10-29T04:34:02;13.57;;;6.63;;
13720;SDS011;6932;51.438;5.470;2022-10-29T04:36:28;13.87;;;6.77;;
13720;SDS011;6932;51.438;5.470;2022-10-29T04:38:54;13.80;;;7.40;;
13720;SDS011;6932;51.438;5.470;2022-10-29T04:41:20;14.50;;;7.37;;
13720;SDS011;6932;51.438;5.470;2022-10-29T04:43:45;15.30;;;7.80;;
13720;SDS011;6932;51.438;5.470;2022-10-29T04:46:11;15.90;;;7.13;;
13720;SDS011;6932;51.438;5.470;2022-10-29T04:48:37;13.50;;;7.50;;
13720;SDS011;6932;51.438;5.470;2022-10-29T04:51:03;12.53;;;6.93;;
13720;SDS011;6932;51.438;5.470;2022-10-29T04:53:29;14.37;;;6.80;;
13720;SDS011;6932;51.438;5.470;2022-10-29T04:55:58;13.27;;;6.73;;
13720;SDS011;6932;51.438;5.470;2022-10-29T04:58:25;15.80;;;6.87;;
13720;SDS011;6932;51.438;5.470;2022-10-29T05:00:52;15.83;;;7.27;;
13720;SDS011;6932;51.438;5.470;2022-10-29T05:03:17;14.97;;;7.13;;
13720;SDS011;6932;51.438;5.470;2022-10-29T05:05:43;14.23;;;6.53;;
13720;SDS011;6932;51.438;5.470;2022-10-29T05:08:09;14.30;;;6.77;;
13720;SDS011;6932;51.438;5.470;2022-10-29T05:10:36;13.93;;;7.00;;
13720;SDS011;6932;51.438;5.470;2022-10-29T05:13:04;14.77;;;7.30;;
13720;SDS011;6932;51.438;5.470;2022-10-29T05:15:34;13.37;;;6.83;;
13720;SDS011;6932;51.438;5.470;2022-10-29T05:18:01;14.60;;;7.33;;
13720;SDS011;6932;51.438;5.470;2022-10-29T05:20:28;18.83;;;7.13;;
13720;SDS011;6932;51.438;5.470;2022-10-29T05:22:58;18.30;;;7.27;;
13720;SDS011;6932;51.438;5.470;2022-10-29T05:25:26;13.73;;;6.80;;
13720;SDS011;6932;51.438;5.470;2022-10-29T05:28:03;18.03;;;7.13;;
13720;SDS011;6932;51.438;5.470;2022-10-29T05:30:32;11.73;;;6.53;;
13720;SDS011;6932;51.438;5.470;2022-10-29T05:32:58;16.33;;;7.37;;
13720;SDS011;6932;51.438;5.470;2022-10-29T05:35:24;16.47;;;6.97;;
13720;SDS011;6932;51.438;5.470;2022-10-29T05:37:54;13.40;;;6.80;;
13720;SDS011;6932;51.438;5.470;2022-10-29T05:40:20;14.83;;;7.33;;
13720;SDS011;6932;51.438;5.470;2022-10-29T05:42:47;17.83;;;7.03;;
13720;SDS011;6932;51.438;5.470;2022-10-29T05:45:14;13.60;;;6.83;;
13720;SDS011;6932;51.438;5.470;2022-10-29T05:47:41;15.17;;;6.97;;
13720;SDS011;6932;51.438;5.470;2022-10-29T05:50:07;14.53;;;6.63;;
13720;SDS011;6932;51.438;5.470;2022-10-29T05:52:33;16.37;;;6.80;;
13720;SDS011;6932;51.438;5.470;2022-10-29T05:54:59;13.57;;;6.93;;
13720;SDS011;6932;51.438;5.470;2022-10-29T05:57:26;14.33;;;6.60;;
13720;SDS011;6932;51.438;5.470;2022-10-29T05:59:52;15.77;;;7.00;;
13720;SDS011;6932;51.438;5.470;2022-10-29T06:02:18;13.90;;;6.60;;
13720;SDS011;6932;51.438;5.470;2022-10-29T06:04:44;14.73;;;7.27;;
13720;SDS011;6932;51.438;5.470;2022-10-29T06:07:10;13.57;;;6.80;;
13720;SDS011;6932;51.438;5.470;2022-10-29T06:09:35;14.40;;;7.10;;
13720;SDS011;6932;51.438;5.470;2022-10-29T06:12:01;15.77;;;7.00;;
13720;SDS011;6932;51.438;5.470;2022-10-29T06:14:27;15.00;;;7.43;;
13720;SDS011;6932;51.438;5.470;2022-10-29T06:16:53;15.07;;;6.97;;
13720;SDS011;6932;51.438;5.470;2022-10-29T06:19:19;14.50;;;6.73;;
13720;SDS011;6932;51.438;5.470;2022-10-29T06:21:44;15.00;;;7.20;;
13720;SDS011;6932;51.438;5.470;2022-10-29T06:24:10;15.27;;;6.73;;
13720;SDS011;6932;51.438;5.470;2022-10-29T06:26:37;13.73;;;6.97;;
13720;SDS011;6932;51.438;5.470;2022-10-29T06:29:04;13.80;;;6.80;;
13720;SDS011;6932;51.438;5.470;2022-10-29T06:31:30;18.13;;;7.13;;
13720;SDS011;6932;51.438;5.470;2022-10-29T06:33:56;16.50;;;7.20;;
13720;SDS011;6932;51.438;5.470;2022-10-29T06:36:21;15.80;;;7.23;;
13720;SDS011;6932;51.438;5.470;2022-10-29T06:38:47;18.00;;;7.50;;
13720;SDS011;6932;51.438;5.470;2022-10-29T06:41:13;15.30;;;7.30;;
13720;SDS011;6932;51.438;5.470;2022-10-29T06:43:39;13.83;;;6.97;;
13720;SDS011;6932;51.438;5.470;2022-10-29T06:46:04;16.17;;;6.70;;
13720;SDS011;6932;51.438;5.470;2022-10-29T06:48:30;18.33;;;7.20;;
13720;SDS011;6932;51.438;5.470;2022-10-29T06:50:57;14.93;;;6.70;;
13720;SDS011;6932;51.438;5.470;2022-10-29T06:53:26;14.80;;;6.93;;
13720;SDS011;6932;51.438;5.470;2022-10-29T06:55:52;13.27;;;7.03;;
13720;SDS011;6932;51.438;5.470;2022-10-29T06:58:18;13.23;;;6.93;;
13720;SDS011;6932;51.438;5.470;2022-10-29T07:00:45;14.27;;;6.83;;
13720;SDS011;6932;51.438;5.470;2022-10-29T07:03:12;17.73;;;6.93;;
13720;SDS011;6932;51.438;5.470;2022-10-29T07:05:39;13.73;;;6.93;;
13720;SDS011;6932;51.438;5.470;2022-10-29T07:08:05;15.43;;;7.13;;
13720;SDS011;6932;51.438;5.470;2022-10-29T07:10:32;15.87;;;6.90;;
13720;SDS011;6932;51.438;5.470;2022-10-29T07:12:58;17.13;;;7.63;;
13720;SDS011;6932;51.438;5.470;2022-10-29T07:15:25;13.30;;;7.10;;
13720;SDS011;6932;51.438;5.470;2022-10-29T07:18:01;14.87;;;7.20;;
13720;SDS011;6932;51.438;5.470;2022-10-29T07:20:31;15.27;;;7.17;;
13720;SDS011;6932;51.438;5.470;2022-10-29T07:23:00;15.67;;;7.07;;
13720;SDS011;6932;51.438;5.470;2022-10-29T07:25:26;13.07;;;6.80;;
13720;SDS011;6932;51.438;5.470;2022-10-29T07:27:53;14.23;;;6.90;;
13720;SDS011;6932;51.438;5.470;2022-10-29T07:30:19;15.23;;;6.53;;
13720;SDS011;6932;51.438;5.470;2022-10-29T07:32:45;14.20;;;6.63;;
13720;SDS011;6932;51.438;5.470;2022-10-29T07:35:11;14.23;;;6.80;;
13720;SDS011;6932;51.438;5.470;2022-10-29T07:37:37;14.77;;;6.83;;
13720;SDS011;6932;51.438;5.470;2022-10-29T07:40:03;15.50;;;6.60;;
13720;SDS011;6932;51.438;5.470;2022-10-29T07:42:30;13.67;;;6.90;;
13720;SDS011;6932;51.438;5.470;2022-10-29T07:44:55;14.53;;;7.03;;
13720;SDS011;6932;51.438;5.470;2022-10-29T07:47:21;13.93;;;6.73;;
13720;SDS011;6932;51.438;5.470;2022-10-29T07:49:47;14.13;;;6.57;;
13720;SDS011;6932;51.438;5.470;2022-10-29T07:52:12;15.30;;;6.63;;
13720;SDS011;6932;51.438;5.470;2022-10-29T07:54:38;14.40;;;6.30;;
13720;SDS011;6932;51.438;5.470;2022-10-29T07:57:04;15.63;;;6.60;;
13720;SDS011;6932;51.438;5.470;2022-10-29T07:59:29;13.67;;;6.73;;
13720;SDS011;6932;51.438;5.470;2022-10-29T08:01:55;13.27;;;6.20;;
13720;SDS011;6932;51.438;5.470;2022-10-29T08:04:21;10.47;;;6.33;;
13720;SDS011;6932;51.438;5.470;2022-10-29T08:06:46;15.77;;;6.60;;
13720;SDS011;6932;51.438;5.470;2022-10-29T08:09:12;16.93;;;6.80;;
13720;SDS011;6932;51.438;5.470;2022-10-29T08:11:38;15.93;;;6.90;;
13720;SDS011;6932;51.438;5.470;2022-10-29T08:14:04;11.53;;;6.03;;
13720;SDS011;6932;51.438;5.470;2022-10-29T08:16:30;16.40;;;6.87;;
13720;SDS011;6932;51.438;5.470;2022-10-29T08:18:56;12.33;;;6.10;;
13720;SDS011;6932;51.438;5.470;2022-10-29T08:21:21;13.17;;;6.43;;
13720;SDS011;6932;51.438;5.470;2022-10-29T08:23:47;15.20;;;6.10;;
13720;SDS011;6932;51.438;5.470;2022-10-29T08:26:13;14.63;;;6.17;;
13720;SDS011;6932;51.438;5.470;2022-10-29T08:28:39;12.07;;;6.00;;
13720;SDS011;6932;51.438;5.470;2022-10-29T08:31:06;13.77;;;6.13;;
13720;SDS011;6932;51.438;5.470;2022-10-29T08:33:33;12.57;;;6.33;;
13720;SDS011;6932;51.438;5.470;2022-10-29T08:35:59;14.60;;;6.03;;
13720;SDS011;6932;51.438;5.470;2022-10-29T08:38:25;11.77;;;6.10;;
13720;SDS011;6932;51.438;5.470;2022-10-29T08:43:52;12.37;;;5.40;;
13720;SDS011;6932;51.438;5.470;2022-10-29T08:46:37;13.90;;;6.07;;
13720;SDS011;6932;51.438;5.470;2022-10-29T08:49:25;11.63;;;5.40;;
13720;SDS011;6932;51.438;5.470;2022-10-29T08:52:26;16.57;;;5.90;;
13720;SDS011;6932;51.438;5.470;2022-10-29T08:57:58;9.90;;;5.20;;
13720;SDS011;6932;51.438;5.470;2022-10-29T09:00:38;10.40;;;5.27;;
13720;SDS011;6932;51.438;5.470;2022-10-29T09:03:10;12.40;;;5.30;;
13720;SDS011;6932;51.438;5.470;2022-10-29T09:05:52;10.17;;;5.40;;
13720;SDS011;6932;51.438;5.470;2022-10-29T09:08:51;12.10;;;5.73;;
13720;SDS011;6932;51.438;5.470;2022-10-29T09:17:32;11.87;;;5.60;;
13720;SDS011;6932;51.438;5.470;2022-10-29T09:25:50;9.83;;;5.17;;
13720;SDS011;6932;51.438;5.470;2022-10-29T09:33:47;10.33;;;4.90;;
13720;SDS011;6932;51.438;5.470;2022-10-29T09:36:17;9.10;;;4.90;;
13720;SDS011;6932;51.438;5.470;2022-10-29T09:39:00;10.87;;;5.07;;
13720;SDS011;6932;51.438;5.470;2022-10-29T09:41:34;13.13;;;4.50;;
13720;SDS011;6932;51.438;5.470;2022-10-29T09:49:39;10.70;;;4.97;;
13720;SDS011;6932;51.438;5.470;2022-10-29T09:52:30;10.47;;;4.80;;
13720;SDS011;6932;51.438;5.470;2022-10-29T09:54:59;10.37;;;4.23;;
13720;SDS011;6932;51.438;5.470;2022-10-29T09:57:32;9.37;;;4.60;;
13720;SDS011;6932;51.438;5.470;2022-10-29T10:00:02;8.67;;;4.03;;
13720;SDS011;6932;51.438;5.470;2022-10-29T10:02:48;12.07;;;4.90;;
13720;SDS011;6932;51.438;5.470;2022-10-29T10:05:25;8.47;;;4.37;;
13720;SDS011;6932;51.438;5.470;2022-10-29T10:10:38;7.27;;;3.87;;
13720;SDS011;6932;51.438;5.470;2022-10-29T10:13:18;8.70;;;4.03;;
13720;SDS011;6932;51.438;5.470;2022-10-29T10:15:49;9.97;;;4.40;;
13720;SDS011;6932;51.438;5.470;2022-10-29T10:18:22;10.87;;;4.30;;
13720;SDS011;6932;51.438;5.470;2022-10-29T10:21:05;9.00;;;4.03;;
13720;SDS011;6932;51.438;5.470;2022-10-29T10:23:45;13.03;;;4.30;;
13720;SDS011;6932;51.438;5.470;2022-10-29T10:31:45;10.33;;;3.90;;
13720;SDS011;6932;51.438;5.470;2022-10-29T10:34:15;12.20;;;3.83;;
13720;SDS011;6932;51.438;5.470;2022-10-29T10:36:46;11.77;;;3.60;;
13720;SDS011;6932;51.438;5.470;2022-10-29T10:41:55;10.13;;;3.93;;
13720;SDS011;6932;51.438;5.470;2022-10-29T10:44:26;8.67;;;3.70;;
13720;SDS011;6932;51.438;5.470;2022-10-29T10:46:53;10.90;;;3.93;;
13720;SDS011;6932;51.438;5.470;2022-10-29T10:51:52;7.90;;;3.47;;
13720;SDS011;6932;51.438;5.470;2022-10-29T11:00:08;10.10;;;3.67;;
13720;SDS011;6932;51.438;5.470;2022-10-29T11:02:29;10.40;;;4.43;;
13720;SDS011;6932;51.438;5.470;2022-10-29T11:08:21;8.50;;;3.80;;
13720;SDS011;6932;51.438;5.470;2022-10-29T11:10:55;12.00;;;4.00;;
13720;SDS011;6932;51.438;5.470;2022-10-29T11:13:28;8.13;;;3.30;;
13720;SDS011;6932;51.438;5.470;2022-10-29T11:16:01;11.13;;;3.70;;
13720;SDS011;6932;51.438;5.470;2022-10-29T11:27:46;8.17;;;3.50;;
13720;SDS011;6932;51.438;5.470;2022-10-29T11:30:22;7.77;;;3.40;;
13720;SDS011;6932;51.438;5.470;2022-10-29T11:36:03;17.23;;;4.70;;
13720;SDS011;6932;51.438;5.470;2022-10-29T11:38:51;8.90;;;3.97;;
13720;SDS011;6932;51.438;5.470;2022-10-29T11:41:37;13.65;;;4.10;;
13720;SDS011;6932;51.438;5.470;2022-10-29T11:44:11;10.80;;;4.07;;
13720;SDS011;6932;51.438;5.470;2022-10-29T11:52:08;7.07;;;3.50;;
13720;SDS011;6932;51.438;5.470;2022-10-29T11:57:31;8.40;;;3.65;;
13720;SDS011;6932;51.438;5.470;2022-10-29T12:00:17;10.38;;;3.70;;
13720;SDS011;6932;51.438;5.470;2022-10-29T12:11:38;9.07;;;3.40;;
13720;SDS011;6932;51.438;5.470;2022-10-29T12:14:48;8.43;;;3.17;;
13720;SDS011;6932;51.438;5.470;2022-10-29T12:17:37;8.80;;;3.58;;
13720;SDS011;6932;51.438;5.470;2022-10-29T12:32:10;10.15;;;4.00;;
13720;SDS011;6932;51.438;5.470;2022-10-29T12:38:00;8.98;;;3.17;;
13720;SDS011;6932;51.438;5.470;2022-10-29T12:40:47;12.88;;;3.92;;
13720;SDS011;6932;51.438;5.470;2022-10-29T12:43:26;10.57;;;3.42;;
13720;SDS011;6932;51.438;5.470;2022-10-29T12:51:46;12.60;;;3.25;;
13720;SDS011;6932;51.438;5.470;2022-10-29T12:54:36;11.68;;;3.80;;
13720;SDS011;6932;51.438;5.470;2022-10-29T12:59:38;11.32;;;3.72;;
13720;SDS011;6932;51.438;5.470;2022-10-29T13:07:36;10.55;;;3.75;;
13720;SDS011;6932;51.438;5.470;2022-10-29T13:15:19;10.57;;;3.80;;
13720;SDS011;6932;51.438;5.470;2022-10-29T13:17:50;11.13;;;3.55;;
13720;SDS011;6932;51.438;5.470;2022-10-29T13:20:23;10.25;;;3.50;;
13720;SDS011;6932;51.438;5.470;2022-10-29T13:22:59;10.40;;;3.95;;
13720;SDS011;6932;51.438;5.470;2022-10-29T13:27:57;11.75;;;3.85;;
13720;SDS011;6932;51.438;5.470;2022-10-29T13:30:32;8.80;;;3.35;;
13720;SDS011;6932;51.438;5.470;2022-10-29T13:44:04;10.35;;;3.50;;
13720;SDS011;6932;51.438;5.470;2022-10-29T13:46:53;9.45;;;3.15;;
13720;SDS011;6932;51.438;5.470;2022-10-29T13:49:45;11.65;;;3.88;;
13720;SDS011;6932;51.438;5.470;2022-10-29T13:52:14;13.10;;;4.07;;
13720;SDS011;6932;51.438;5.470;2022-10-29T13:54:53;12.68;;;3.47;;
13720;SDS011;6932;51.438;5.470;2022-10-29T13:57:37;10.30;;;3.50;;
13720;SDS011;6932;51.438;5.470;2022-10-29T14:00:23;10.13;;;3.28;;
13720;SDS011;6932;51.438;5.470;2022-10-29T14:02:59;12.05;;;4.13;;
13720;SDS011;6932;51.438;5.470;2022-10-29T14:10:56;13.32;;;4.35;;
13720;SDS011;6932;51.438;5.470;2022-10-29T14:16:16;10.52;;;3.80;;
13720;SDS011;6932;51.438;5.470;2022-10-29T14:18:51;10.63;;;4.00;;
13720;SDS011;6932;51.438;5.470;2022-10-29T14:21:22;14.52;;;4.40;;
13720;SDS011;6932;51.438;5.470;2022-10-29T14:24:09;12.45;;;4.28;;
13720;SDS011;6932;51.438;5.470;2022-10-29T14:26:38;14.20;;;4.28;;
13720;SDS011;6932;51.438;5.470;2022-10-29T14:32:06;13.95;;;4.28;;
13720;SDS011;6932;51.438;5.470;2022-10-29T14:34:39;10.48;;;3.88;;
13720;SDS011;6932;51.438;5.470;2022-10-29T14:37:07;11.00;;;3.67;;
13720;SDS011;6932;51.438;5.470;2022-10-29T14:39:47;13.90;;;4.07;;
13720;SDS011;6932;51.438;5.470;2022-10-29T14:42:19;15.90;;;3.92;;
13720;SDS011;6932;51.438;5.470;2022-10-29T14:45:00;11.23;;;4.13;;
13720;SDS011;6932;51.438;5.470;2022-10-29T14:47:32;10.63;;;4.30;;
13720;SDS011;6932;51.438;5.470;2022-10-29T14:50:05;9.80;;;3.92;;
13720;SDS011;6932;51.438;5.470;2022-10-29T14:53:02;13.77;;;4.57;;
13720;SDS011;6932;51.438;5.470;2022-10-29T14:55:45;12.77;;;4.17;;
13720;SDS011;6932;51.438;5.470;2022-10-29T14:58:14;10.95;;;4.43;;
13720;SDS011;6932;51.438;5.470;2022-10-29T15:00:57;12.70;;;3.80;;
13720;SDS011;6932;51.438;5.470;2022-10-29T15:03:28;11.87;;;4.10;;
13720;SDS011;6932;51.438;5.470;2022-10-29T15:08:46;15.48;;;5.05;;
13720;SDS011;6932;51.438;5.470;2022-10-29T15:11:40;14.00;;;4.40;;
13720;SDS011;6932;51.438;5.470;2022-10-29T15:14:26;10.73;;;4.00;;
13720;SDS011;6932;51.438;5.470;2022-10-29T15:17:12;12.97;;;3.87;;
13720;SDS011;6932;51.438;5.470;2022-10-29T15:19:51;12.52;;;4.18;;
13720;SDS011;6932;51.438;5.470;2022-10-29T15:22:24;15.83;;;4.37;;
13720;SDS011;6932;51.438;5.470;2022-10-29T15:24:58;12.03;;;4.20;;
13720;SDS011;6932;51.438;5.470;2022-10-29T15:27:28;10.57;;;4.17;;
13720;SDS011;6932;51.438;5.470;2022-10-29T15:29:54;13.63;;;4.27;;
13720;SDS011;6932;51.438;5.470;2022-10-29T15:32:20;13.03;;;4.50;;
13720;SDS011;6932;51.438;5.470;2022-10-29T15:34:50;12.85;;;4.47;;
13720;SDS011;6932;51.438;5.470;2022-10-29T15:37:24;12.20;;;4.37;;
13720;SDS011;6932;51.438;5.470;2022-10-29T15:42:33;11.40;;;4.50;;
13720;SDS011;6932;51.438;5.470;2022-10-29T15:47:36;10.73;;;4.43;;
13720;SDS011;6932;51.438;5.470;2022-10-29T15:50:17;13.90;;;5.10;;
13720;SDS011;6932;51.438;5.470;2022-10-29T15:52:56;12.20;;;5.50;;
13720;SDS011;6932;51.438;5.470;2022-10-29T15:55:33;13.90;;;5.53;;
13720;SDS011;6932;51.438;5.470;2022-10-29T15:58:02;11.40;;;4.90;;
13720;SDS011;6932;51.438;5.470;2022-10-29T16:00:46;11.90;;;4.80;;
13720;SDS011;6932;51.438;5.470;2022-10-29T16:03:16;9.70;;;4.50;;
13720;SDS011;6932;51.438;5.470;2022-10-29T16:05:44;9.97;;;4.90;;
13720;SDS011;6932;51.438;5.470;2022-10-29T16:08:26;12.83;;;4.80;;
13720;SDS011;6932;51.438;5.470;2022-10-29T16:10:53;11.30;;;4.77;;
13720;SDS011;6932;51.438;5.470;2022-10-29T16:13:21;11.10;;;5.23;;
13720;SDS011;6932;51.438;5.470;2022-10-29T16:15:49;9.50;;;4.93;;
13720;SDS011;6932;51.438;5.470;2022-10-29T16:18:15;10.07;;;5.23;;
13720;SDS011;6932;51.438;5.470;2022-10-29T16:20:41;11.07;;;5.50;;
13720;SDS011;6932;51.438;5.470;2022-10-29T16:23:11;12.43;;;5.50;;
13720;SDS011;6932;51.438;5.470;2022-10-29T16:25:37;11.20;;;5.70;;
13720;SDS011;6932;51.438;5.470;2022-10-29T16:28:04;12.20;;;5.07;;
13720;SDS011;6932;51.438;5.470;2022-10-29T16:30:30;12.37;;;5.63;;
13720;SDS011;6932;51.438;5.470;2022-10-29T16:32:56;14.47;;;5.80;;
13720;SDS011;6932;51.438;5.470;2022-10-29T16:35:25;13.17;;;6.20;;
13720;SDS011;6932;51.438;5.470;2022-10-29T16:37:53;12.70;;;5.53;;
13720;SDS011;6932;51.438;5.470;2022-10-29T16:40:21;10.67;;;5.17;;
13720;SDS011;6932;51.438;5.470;2022-10-29T16:42:50;14.97;;;5.50;;
13720;SDS011;6932;51.438;5.470;2022-10-29T16:45:22;12.63;;;5.17;;
13720;SDS011;6932;51.438;5.470;2022-10-29T16:47:51;12.20;;;5.03;;
13720;SDS011;6932;51.438;5.470;2022-10-29T16:50:18;14.33;;;5.03;;
13720;SDS011;6932;51.438;5.470;2022-10-29T16:55:23;12.80;;;5.40;;
13720;SDS011;6932;51.438;5.470;2022-10-29T16:57:49;16.80;;;5.80;;
13720;SDS011;6932;51.438;5.470;2022-10-29T17:00:15;15.10;;;5.53;;
13720;SDS011;6932;51.438;5.470;2022-10-29T17:02:41;11.93;;;4.60;;
13720;SDS011;6932;51.438;5.470;2022-10-29T17:05:08;12.30;;;5.40;;
13720;SDS011;6932;51.438;5.470;2022-10-29T17:07:38;12.60;;;5.13;;
13720;SDS011;6932;51.438;5.470;2022-10-29T17:10:04;12.03;;;5.40;;
13720;SDS011;6932;51.438;5.470;2022-10-29T17:12:31;13.80;;;5.33;;
13720;SDS011;6932;51.438;5.470;2022-10-29T17:14:57;12.00;;;5.37;;
13720;SDS011;6932;51.438;5.470;2022-10-29T17:17:23;12.43;;;4.90;;
13720;SDS011;6932;51.438;5.470;2022-10-29T17:19:48;11.37;;;5.20;;
13720;SDS011;6932;51.438;5.470;2022-10-29T17:22:14;11.50;;;4.80;;
13720;SDS011;6932;51.438;5.470;2022-10-29T17:24:41;14.23;;;6.30;;
13720;SDS011;6932;51.438;5.470;2022-10-29T17:27:08;16.77;;;7.03;;
13720;SDS011;6932;51.438;5.470;2022-10-29T17:29:35;15.50;;;6.83;;
13720;SDS011;6932;51.438;5.470;2022-10-29T17:32:02;15.73;;;7.03;;
13720;SDS011;6932;51.438;5.470;2022-10-29T17:34:29;11.67;;;4.93;;
13720;SDS011;6932;51.438;5.470;2022-10-29T17:36:55;11.97;;;5.20;;
13720;SDS011;6932;51.438;5.470;2022-10-29T17:39:20;12.70;;;4.90;;
13720;SDS011;6932;51.438;5.470;2022-10-29T17:41:46;9.97;;;4.67;;
13720;SDS011;6932;51.438;5.470;2022-10-29T17:44:13;14.53;;;5.30;;
13720;SDS011;6932;51.438;5.470;2022-10-29T17:46:39;11.30;;;5.50;;
13720;SDS011;6932;51.438;5.470;2022-10-29T17:49:05;12.77;;;5.33;;
13720;SDS011;6932;51.438;5.470;2022-10-29T17:51:31;13.07;;;5.10;;
13720;SDS011;6932;51.438;5.470;2022-10-29T17:53:57;15.97;;;5.00;;
13720;SDS011;6932;51.438;5.470;2022-10-29T17:56:23;13.67;;;5.50;;
13720;SDS011;6932;51.438;5.470;2022-10-29T17:58:49;11.07;;;5.07;;
13720;SDS011;6932;51.438;5.470;2022-10-29T18:01:14;12.07;;;5.00;;
13720;SDS011;6932;51.438;5.470;2022-10-29T18:03:40;12.30;;;4.80;;
13720;SDS011;6932;51.438;5.470;2022-10-29T18:06:07;11.57;;;5.10;;